createdAt,value
2023-05-10T00:00:58.625Z,8.73
2023-05-10T00:01:58.752Z,8.76
2023-05-10T00:02:58.799Z,9.00
2023-05-10T00:03:58.915Z,8.63
2023-05-10T00:04:58.866Z,8.77
2023-05-10T00:05:59.070Z,8.57
2023-05-10T00:06:59.013Z,8.73
2023-05-10T00:07:59.037Z,8.73
2023-05-10T00:08:59.117Z,8.85
2023-05-10T00:09:59.162Z,8.57
2023-05-10T00:10:59.217Z,8.52
2023-05-10T00:11:59.410Z,8.65
2023-05-10T00:12:59.387Z,8.29
2023-05-10T00:13:59.421Z,8.53
2023-05-10T00:14:59.466Z,8.47
2023-05-10T00:15:59.660Z,8.55
2023-05-10T00:16:59.605Z,8.35
2023-05-10T00:17:59.698Z,8.44
2023-05-10T00:18:59.708Z,8.54
2023-05-10T00:19:59.756Z,8.55
2023-05-10T00:20:59.841Z,8.63
2023-05-10T00:22:00.006Z,8.46
2023-05-10T00:23:00.024Z,8.48
2023-05-10T00:24:00.042Z,8.31
2023-05-10T00:25:00.089Z,8.50
2023-05-10T00:26:00.166Z,8.57
2023-05-10T00:27:00.242Z,8.52
2023-05-10T00:28:00.403Z,8.36
2023-05-10T00:29:00.345Z,8.54
2023-05-10T00:30:00.394Z,8.48
2023-05-10T00:31:00.478Z,8.60
2023-05-10T00:32:00.537Z,8.50
2023-05-10T00:33:00.590Z,8.34
2023-05-10T00:34:00.647Z,8.51
2023-05-10T00:35:00.691Z,8.56
2023-05-10T00:36:00.862Z,8.63
2023-05-10T00:37:00.994Z,8.69
2023-05-10T00:38:00.863Z,8.41
2023-05-10T00:39:00.930Z,8.36
2023-05-10T00:40:00.984Z,8.31
2023-05-10T00:41:01.052Z,8.09
2023-05-10T00:42:01.121Z,8.16
2023-05-10T00:43:01.186Z,8.14
2023-05-10T00:44:01.257Z,8.11
2023-05-10T00:45:01.255Z,8.05
2023-05-10T00:46:01.372Z,8.15
2023-05-10T00:47:01.436Z,8.20
2023-05-10T00:48:01.458Z,8.06
2023-05-10T00:49:01.477Z,7.99
2023-05-10T00:50:01.531Z,8.04
2023-05-10T00:51:01.610Z,8.12
2023-05-10T00:52:01.656Z,8.09
2023-05-10T00:53:01.650Z,7.95
2023-05-10T00:54:01.688Z,7.75
2023-05-10T00:55:01.705Z,7.82
2023-05-10T00:56:01.725Z,7.86
2023-05-10T00:57:01.745Z,7.75
2023-05-10T00:58:01.784Z,7.67
2023-05-10T00:59:01.774Z,7.70
2023-05-10T01:00:01.800Z,7.65
2023-05-10T01:01:01.867Z,7.61
2023-05-10T01:02:01.877Z,7.70
2023-05-10T01:03:02.051Z,7.80
2023-05-10T01:04:02.047Z,7.70
2023-05-10T01:05:01.960Z,7.72
2023-05-10T01:06:01.945Z,7.58
2023-05-10T01:07:01.946Z,7.68
2023-05-10T01:08:02.002Z,7.67
2023-05-10T01:09:02.022Z,7.70
2023-05-10T01:10:02.210Z,7.72
2023-05-10T01:11:02.128Z,7.61
2023-05-10T01:12:02.204Z,7.64
2023-05-10T01:13:02.236Z,7.45
2023-05-10T01:14:02.285Z,7.51
2023-05-10T01:15:02.203Z,7.49
2023-05-10T01:16:02.351Z,7.41
2023-05-10T01:17:02.300Z,7.42
2023-05-10T01:18:02.262Z,7.34
2023-05-10T01:19:02.296Z,7.40
2023-05-10T01:20:02.379Z,7.62
2023-05-10T01:21:02.354Z,7.60
2023-05-10T01:22:02.409Z,7.61
2023-05-10T01:23:02.426Z,7.66
2023-05-10T01:24:02.449Z,7.58
2023-05-10T01:25:02.517Z,7.52
2023-05-10T01:26:02.539Z,7.78
2023-05-10T01:27:02.553Z,7.73
2023-05-10T01:28:02.582Z,7.62
2023-05-10T01:29:02.648Z,7.75
2023-05-10T01:30:21.746Z,7.57
2023-05-10T01:31:03.659Z,7.58
2023-05-10T01:32:02.639Z,7.61
2023-05-10T01:33:02.796Z,7.61
2023-05-10T01:34:02.657Z,7.56
2023-05-10T01:35:02.617Z,7.48
2023-05-10T01:36:02.642Z,7.27
2023-05-10T01:37:02.612Z,7.07
2023-05-10T01:38:02.604Z,7.27
2023-05-10T01:39:02.593Z,7.11
2023-05-10T01:40:02.582Z,7.28
2023-05-10T01:41:02.612Z,7.12
2023-05-10T01:42:02.720Z,6.96
2023-05-10T01:43:02.689Z,6.72
2023-05-10T01:44:02.698Z,6.76
2023-05-10T01:45:02.737Z,6.72
2023-05-10T01:46:02.779Z,6.53
2023-05-10T01:47:02.883Z,6.80
2023-05-10T01:48:02.860Z,6.61
2023-05-10T01:49:02.921Z,6.70
2023-05-10T01:50:02.921Z,6.58
2023-05-10T01:51:02.947Z,6.38
2023-05-10T01:52:02.961Z,6.41
2023-05-10T01:53:02.976Z,6.50
2023-05-10T01:54:03.141Z,6.50
2023-05-10T01:55:03.050Z,6.43
2023-05-10T01:56:03.080Z,6.37
2023-05-10T01:57:03.072Z,6.33
2023-05-10T01:58:03.098Z,6.47
2023-05-10T01:59:03.122Z,6.52
2023-05-10T02:00:03.174Z,6.52
2023-05-10T02:01:03.262Z,6.27
2023-05-10T02:02:03.241Z,6.54
2023-05-10T02:03:03.310Z,6.46
2023-05-10T02:04:03.305Z,6.31
2023-05-10T02:05:03.325Z,6.20
2023-05-10T02:06:03.360Z,6.32
2023-05-10T02:07:03.378Z,6.37
2023-05-10T02:08:03.407Z,6.17
2023-05-10T02:09:03.453Z,6.09
2023-05-10T02:10:03.480Z,6.15
2023-05-10T02:11:03.614Z,6.13
2023-05-10T02:12:03.559Z,6.23
2023-05-10T02:13:03.568Z,6.42
2023-05-10T02:14:03.552Z,6.46
2023-05-10T02:15:03.542Z,6.43
2023-05-10T02:16:03.551Z,6.58
2023-05-10T02:17:03.614Z,6.38
2023-05-10T02:18:03.632Z,6.50
2023-05-10T02:19:03.616Z,6.22
2023-05-10T02:20:03.579Z,6.07
2023-05-10T02:21:03.600Z,5.96
2023-05-10T02:22:03.683Z,6.00
2023-05-10T02:23:03.689Z,5.85
2023-05-10T02:24:03.728Z,5.86
2023-05-10T02:25:03.727Z,5.94
2023-05-10T02:26:03.764Z,5.84
2023-05-10T02:27:03.784Z,5.83
2023-05-10T02:28:03.823Z,5.79
2023-05-10T02:29:03.873Z,5.71
2023-05-10T02:30:03.914Z,5.54
2023-05-10T02:31:03.941Z,5.65
2023-05-10T02:32:04.005Z,5.59
2023-05-10T02:33:04.051Z,5.67
2023-05-10T02:34:04.041Z,5.66
2023-05-10T02:35:04.055Z,5.60
2023-05-10T02:36:04.118Z,5.57
2023-05-10T02:37:04.125Z,5.53
2023-05-10T02:38:04.126Z,5.64
2023-05-10T02:39:04.166Z,5.58
2023-05-10T02:40:04.225Z,5.55
2023-05-10T02:41:04.258Z,5.69
2023-05-10T02:42:04.195Z,5.42
2023-05-10T02:43:04.193Z,5.36
2023-05-10T02:44:04.221Z,5.33
2023-05-10T02:45:04.243Z,5.29
2023-05-10T02:46:04.273Z,5.24
2023-05-10T02:47:04.264Z,5.22
2023-05-10T02:48:04.297Z,5.26
2023-05-10T02:49:04.327Z,5.39
2023-05-10T02:50:04.387Z,5.14
2023-05-10T02:51:04.344Z,5.30
2023-05-10T02:52:04.351Z,5.13
2023-05-10T02:53:04.482Z,5.20
2023-05-10T02:54:04.393Z,5.29
2023-05-10T02:55:04.394Z,5.19
2023-05-10T02:56:04.411Z,5.17
2023-05-10T02:57:04.446Z,5.15
2023-05-10T02:58:04.465Z,5.04
2023-05-10T02:59:04.515Z,5.04
2023-05-10T03:00:04.536Z,5.11
2023-05-10T03:01:04.606Z,5.09
2023-05-10T03:02:04.613Z,5.09
2023-05-10T03:03:04.685Z,5.01
2023-05-10T03:04:04.747Z,5.09
2023-05-10T03:05:04.700Z,5.17
2023-05-10T03:06:04.728Z,5.11
2023-05-10T03:07:04.731Z,5.11
2023-05-10T03:08:04.724Z,5.06
2023-05-10T03:09:04.737Z,5.04
2023-05-10T03:10:04.751Z,5.01
2023-05-10T03:11:04.736Z,4.86
2023-05-10T03:12:04.783Z,4.96
2023-05-10T03:13:04.776Z,5.03
2023-05-10T03:14:04.726Z,5.06
2023-05-10T03:15:04.731Z,5.03
2023-05-10T03:16:04.830Z,4.96
2023-05-10T03:17:04.840Z,4.73
2023-05-10T03:18:04.793Z,4.89
2023-05-10T03:19:04.782Z,4.73
2023-05-10T03:20:04.790Z,4.77
2023-05-10T03:21:04.804Z,4.83
2023-05-10T03:22:04.847Z,4.80
2023-05-10T03:23:04.850Z,4.89
2023-05-10T03:24:04.836Z,4.93
2023-05-10T03:25:04.830Z,4.95
2023-05-10T03:26:04.935Z,4.92
2023-05-10T03:27:04.801Z,5.04
2023-05-10T03:28:04.796Z,4.91
2023-05-10T03:29:04.825Z,4.96
2023-05-10T03:30:04.791Z,4.86
2023-05-10T03:31:04.814Z,4.94
2023-05-10T03:32:04.826Z,5.04
2023-05-10T03:33:04.913Z,5.00
2023-05-10T03:34:04.937Z,4.94
2023-05-10T03:35:04.946Z,5.00
2023-05-10T03:36:04.992Z,4.97
2023-05-10T03:37:05.038Z,5.11
2023-05-10T03:38:05.071Z,5.12
2023-05-10T03:39:05.105Z,5.13
2023-05-10T03:40:05.098Z,5.16
2023-05-10T03:41:05.146Z,5.05
2023-05-10T03:42:05.107Z,4.87
2023-05-10T03:43:05.113Z,4.96
2023-05-10T03:44:05.100Z,4.91
2023-05-10T03:45:05.119Z,4.91
2023-05-10T03:46:05.121Z,4.87
2023-05-10T03:47:05.137Z,4.78
2023-05-10T03:48:05.147Z,4.74
2023-05-10T03:49:05.122Z,4.83
2023-05-10T03:50:05.128Z,4.82
2023-05-10T03:51:05.152Z,4.88
2023-05-10T03:52:05.294Z,4.79
2023-05-10T03:53:05.187Z,4.84
2023-05-10T03:54:05.203Z,4.79
2023-05-10T03:55:05.204Z,4.85
2023-05-10T03:56:05.198Z,4.71
2023-05-10T03:57:05.202Z,4.71
2023-05-10T03:58:05.216Z,4.68
2023-05-10T03:59:05.226Z,4.68
2023-05-10T04:00:05.251Z,4.47
2023-05-10T04:01:05.284Z,4.62
2023-05-10T04:02:05.398Z,4.45
2023-05-10T04:03:05.401Z,4.48
2023-05-10T04:04:05.460Z,4.58
2023-05-10T04:05:05.456Z,4.62
2023-05-10T04:06:05.496Z,4.73
2023-05-10T04:07:05.533Z,4.66
2023-05-10T04:08:05.554Z,4.54
2023-05-10T04:09:05.622Z,4.41
2023-05-10T04:10:05.648Z,4.40
2023-05-10T04:11:05.695Z,4.28
2023-05-10T04:12:05.749Z,4.12
2023-05-10T04:13:05.799Z,4.20
2023-05-10T04:14:05.825Z,4.23
2023-05-10T04:15:05.880Z,4.16
2023-05-10T04:16:05.925Z,4.26
2023-05-10T04:17:06.045Z,4.21
2023-05-10T04:18:07.993Z,4.25
2023-05-10T04:19:06.084Z,4.34
2023-05-10T04:20:05.951Z,4.28
2023-05-10T04:21:06.012Z,4.21
2023-05-10T04:22:05.962Z,4.25
2023-05-10T04:23:05.946Z,4.20
2023-05-10T04:24:05.930Z,4.27
2023-05-10T04:25:05.934Z,4.19
2023-05-10T04:26:05.907Z,4.17
2023-05-10T04:27:05.914Z,4.00
2023-05-10T04:28:06.012Z,4.18
2023-05-10T04:29:05.907Z,4.09
2023-05-10T04:30:05.900Z,4.10
2023-05-10T04:31:05.990Z,4.12
2023-05-10T04:32:05.880Z,4.06
2023-05-10T04:33:05.929Z,4.07
2023-05-10T04:34:05.922Z,4.07
2023-05-10T04:35:05.944Z,3.93
2023-05-10T04:36:05.848Z,3.94
2023-05-10T04:37:05.857Z,3.94
2023-05-10T04:38:05.843Z,3.84
2023-05-10T04:39:05.828Z,3.90
2023-05-10T04:40:05.823Z,3.96
2023-05-10T04:41:05.834Z,3.87
2023-05-10T04:42:05.821Z,3.94
2023-05-10T04:43:05.802Z,4.00
2023-05-10T04:44:05.927Z,4.05
2023-05-10T04:45:05.781Z,3.94
2023-05-10T04:46:05.886Z,3.99
2023-05-10T04:47:05.762Z,4.09
2023-05-10T04:48:05.815Z,4.15
2023-05-10T04:49:05.778Z,4.00
2023-05-10T04:50:05.761Z,3.96
2023-05-10T04:51:05.824Z,3.93
2023-05-10T04:52:05.732Z,4.02
2023-05-10T04:53:05.752Z,4.08
2023-05-10T04:54:06.802Z,4.18
2023-05-10T04:55:05.728Z,4.23
2023-05-10T04:56:05.717Z,4.20
2023-05-10T04:57:05.727Z,4.14
2023-05-10T04:58:05.712Z,4.13
2023-05-10T04:59:05.728Z,4.04
2023-05-10T05:00:05.703Z,4.15
2023-05-10T05:01:05.699Z,4.08
2023-05-10T05:02:05.823Z,4.11
2023-05-10T05:03:05.712Z,4.02
2023-05-10T05:04:05.662Z,4.09
2023-05-10T05:05:05.651Z,4.13
2023-05-10T05:06:05.649Z,4.16
2023-05-10T05:07:05.655Z,4.32
2023-05-10T05:08:05.629Z,4.39
2023-05-10T05:09:05.638Z,4.50
2023-05-10T05:10:05.621Z,4.48
2023-05-10T05:11:05.625Z,4.47
2023-05-10T05:12:05.631Z,4.54
2023-05-10T05:13:05.647Z,4.51
2023-05-10T05:14:05.629Z,4.59
2023-05-10T05:15:07.223Z,4.50
2023-05-10T05:16:05.602Z,4.67
2023-05-10T05:17:05.590Z,4.45
2023-05-10T05:18:05.614Z,4.37
2023-05-10T05:19:05.601Z,4.32
2023-05-10T05:20:05.568Z,4.27
2023-05-10T05:21:05.572Z,4.22
2023-05-10T05:22:05.557Z,4.32
2023-05-10T05:23:05.543Z,4.40
2023-05-10T05:24:05.721Z,4.53
2023-05-10T05:25:05.560Z,4.57
2023-05-10T05:26:05.510Z,4.54
2023-05-10T05:27:05.521Z,4.22
2023-05-10T05:28:05.516Z,4.14
2023-05-10T05:29:05.869Z,4.16
2023-05-10T05:30:05.490Z,4.58
2023-05-10T05:31:05.618Z,4.82
2023-05-10T05:32:05.525Z,4.98
2023-05-10T05:33:05.505Z,5.54
2023-05-10T05:34:05.479Z,6.17
2023-05-10T05:35:05.459Z,6.78
2023-05-10T05:36:05.670Z,7.48
2023-05-10T05:37:05.448Z,7.91
2023-05-10T05:38:05.427Z,9.23
2023-05-10T05:39:05.464Z,10.18
2023-05-10T05:40:05.592Z,11.17
2023-05-10T05:41:05.415Z,12.08
2023-05-10T05:42:05.446Z,12.39
2023-05-10T05:43:05.411Z,12.91
2023-05-10T05:44:05.386Z,14.25
2023-05-10T05:45:05.388Z,14.94
2023-05-10T05:46:05.443Z,15.36
2023-05-10T05:47:05.376Z,16.75
2023-05-10T05:48:05.399Z,17.71
2023-05-10T05:49:05.375Z,18.11
2023-05-10T05:50:05.357Z,19.01
2023-05-10T05:51:07.172Z,19.82
2023-05-10T05:52:05.354Z,27.00
2023-05-10T05:53:05.343Z,30.92
2023-05-10T05:54:05.322Z,48.68
2023-05-10T05:55:05.331Z,67.81
2023-05-10T05:56:05.346Z,44.80
2023-05-10T05:57:05.351Z,39.73
2023-05-10T05:58:05.316Z,34.04
2023-05-10T05:59:05.293Z,30.92
2023-05-10T06:00:05.292Z,28.44
2023-05-10T06:01:05.329Z,36.33
2023-05-10T06:02:05.412Z,31.07
2023-05-10T06:03:05.438Z,36.63
2023-05-10T06:04:05.515Z,29.67
2023-05-10T06:05:05.438Z,27.96
2023-05-10T06:06:05.485Z,23.87
2023-05-10T06:07:05.527Z,27.07
2023-05-10T06:08:05.596Z,33.72
2023-05-10T06:09:05.587Z,32.42
2023-05-10T06:10:05.640Z,30.76
2023-05-10T06:11:05.645Z,29.38
2023-05-10T06:12:05.695Z,28.87
2023-05-10T06:13:05.758Z,29.14
2023-05-10T06:14:05.752Z,27.40
2023-05-10T06:15:05.848Z,24.41
2023-05-10T06:16:05.819Z,23.58
2023-05-10T06:17:05.857Z,23.60
2023-05-10T06:18:06.016Z,24.76
2023-05-10T06:19:05.900Z,24.28
2023-05-10T06:20:06.354Z,24.10
2023-05-10T06:21:05.932Z,24.11
2023-05-10T06:22:05.950Z,24.21
2023-05-10T06:23:05.961Z,24.38
2023-05-10T06:24:06.020Z,24.57
2023-05-10T06:25:06.064Z,29.13
2023-05-10T06:26:06.123Z,34.46
2023-05-10T06:27:06.213Z,43.69
2023-05-10T06:28:06.262Z,42.55
2023-05-10T06:29:06.304Z,37.04
2023-05-10T06:30:12.791Z,37.02
2023-05-10T06:31:07.392Z,37.06
2023-05-10T06:32:06.380Z,37.07
2023-05-10T06:33:06.458Z,34.72
2023-05-10T06:34:06.415Z,35.47
2023-05-10T06:35:06.873Z,38.37
2023-05-10T06:36:06.480Z,43.59
2023-05-10T06:37:06.567Z,39.65
2023-05-10T06:38:06.574Z,39.40
2023-05-10T06:39:06.639Z,39.45
2023-05-10T06:40:06.839Z,24.44
2023-05-10T06:41:06.728Z,17.13
2023-05-10T06:42:06.760Z,11.65
2023-05-10T06:43:06.764Z,8.88
2023-05-10T06:44:06.821Z,8.46
2023-05-10T06:45:06.871Z,8.36
2023-05-10T06:46:06.951Z,7.19
2023-05-10T06:47:06.898Z,7.80
2023-05-10T06:48:06.947Z,8.49
2023-05-10T06:49:06.914Z,8.36
2023-05-10T06:50:06.935Z,7.45
2023-05-10T06:51:06.938Z,6.83
2023-05-10T06:52:06.927Z,6.64
2023-05-10T06:53:06.937Z,6.73
2023-05-10T06:54:06.965Z,6.15
2023-05-10T06:55:06.955Z,6.36
2023-05-10T06:56:06.948Z,6.10
2023-05-10T06:57:10.978Z,5.88
2023-05-10T06:58:07.984Z,5.89
2023-05-10T06:59:07.057Z,5.93
2023-05-10T07:00:07.059Z,5.69
2023-05-10T07:01:07.019Z,5.84
2023-05-10T07:02:06.991Z,5.49
2023-05-10T07:03:06.978Z,5.63
2023-05-10T07:04:06.946Z,5.48
2023-05-10T07:05:06.952Z,5.33
2023-05-10T07:06:07.175Z,5.45
2023-05-10T07:07:06.936Z,5.56
2023-05-10T07:08:06.897Z,5.60
2023-05-10T07:09:06.912Z,6.70
2023-05-10T07:10:06.898Z,7.67
2023-05-10T07:11:06.890Z,8.44
2023-05-10T07:12:08.223Z,9.64
2023-05-10T07:13:06.991Z,11.22
2023-05-10T07:14:06.857Z,12.34
2023-05-10T07:15:06.892Z,12.50
2023-05-10T07:16:06.900Z,13.06
2023-05-10T07:17:06.906Z,13.39
2023-05-10T07:18:06.973Z,13.47
2023-05-10T07:19:06.840Z,14.08
2023-05-10T07:20:06.823Z,14.64
2023-05-10T07:21:06.857Z,14.72
2023-05-10T07:22:06.801Z,14.51
2023-05-10T07:23:06.831Z,15.28
2023-05-10T07:24:06.808Z,15.73
2023-05-10T07:25:06.843Z,15.91
2023-05-10T07:26:06.789Z,16.13
2023-05-10T07:27:06.863Z,16.31
2023-05-10T07:28:06.786Z,15.68
2023-05-10T07:29:06.825Z,14.03
2023-05-10T07:30:06.770Z,13.69
2023-05-10T07:31:06.817Z,12.86
2023-05-10T07:32:06.957Z,13.10
2023-05-10T07:33:06.815Z,14.59
2023-05-10T07:34:06.751Z,14.49
2023-05-10T07:35:06.745Z,14.43
2023-05-10T07:36:06.719Z,15.31
2023-05-10T07:37:06.712Z,16.08
2023-05-10T07:38:06.739Z,16.09
2023-05-10T07:39:06.714Z,16.32
2023-05-10T07:40:06.707Z,15.08
2023-05-10T07:41:06.696Z,15.10
2023-05-10T07:42:06.700Z,15.84
2023-05-10T07:43:06.687Z,16.24
2023-05-10T07:44:06.696Z,16.68
2023-05-10T07:45:06.677Z,15.81
2023-05-10T07:46:06.702Z,16.52
2023-05-10T07:47:06.668Z,13.48
2023-05-10T07:48:06.703Z,11.01
2023-05-10T07:49:06.647Z,11.68
2023-05-10T07:50:06.880Z,12.81
2023-05-10T07:51:06.619Z,12.48
2023-05-10T07:52:06.626Z,11.12
2023-05-10T07:53:06.637Z,12.88
2023-05-10T07:54:06.599Z,13.17
2023-05-10T07:55:06.862Z,13.45
2023-05-10T07:56:06.602Z,11.68
2023-05-10T07:57:06.603Z,12.04
2023-05-10T07:58:06.590Z,12.21
2023-05-10T07:59:06.586Z,12.16
2023-05-10T08:00:06.885Z,12.52
2023-05-10T08:01:06.555Z,11.97
2023-05-10T08:02:06.580Z,11.62
2023-05-10T08:03:06.737Z,10.82
2023-05-10T08:04:06.654Z,10.09
2023-05-10T08:05:06.534Z,9.44
2023-05-10T08:06:06.671Z,9.59
2023-05-10T08:07:06.572Z,9.84
2023-05-10T08:08:06.509Z,8.80
2023-05-10T08:09:06.533Z,8.91
2023-05-10T08:10:06.510Z,9.40
2023-05-10T08:11:06.500Z,8.18
2023-05-10T08:12:06.513Z,8.87
2023-05-10T08:13:06.491Z,9.70
2023-05-10T08:14:06.668Z,10.65
2023-05-10T08:15:06.903Z,11.29
2023-05-10T08:16:06.487Z,11.61
2023-05-10T08:17:06.471Z,12.62
2023-05-10T08:18:06.535Z,16.33
2023-05-10T08:19:06.506Z,19.65
2023-05-10T08:20:06.894Z,18.20
2023-05-10T08:21:06.552Z,16.45
2023-05-10T08:22:06.617Z,16.45
2023-05-10T08:23:06.688Z,16.75
2023-05-10T08:24:06.654Z,18.16
2023-05-10T08:25:06.675Z,18.61
2023-05-10T08:26:06.693Z,18.81
2023-05-10T08:27:06.716Z,20.16
2023-05-10T08:28:06.681Z,21.71
2023-05-10T08:29:06.732Z,21.98
2023-05-10T08:30:06.752Z,23.42
2023-05-10T08:31:06.879Z,24.55
2023-05-10T08:32:06.813Z,23.46
2023-05-10T08:33:06.797Z,25.33
2023-05-10T08:34:06.793Z,27.13
2023-05-10T08:35:06.859Z,24.29
2023-05-10T08:36:06.897Z,20.47
2023-05-10T08:37:06.943Z,19.79
2023-05-10T08:38:06.980Z,19.27
2023-05-10T08:39:13.548Z,19.90
2023-05-10T08:40:08.669Z,19.95
2023-05-10T08:41:07.237Z,20.04
2023-05-10T08:42:07.187Z,20.06
2023-05-10T08:43:07.806Z,18.23
2023-05-10T08:44:07.132Z,13.37
2023-05-10T08:45:07.392Z,12.79
2023-05-10T08:46:07.044Z,11.91
2023-05-10T08:47:07.110Z,11.10
2023-05-10T08:48:07.074Z,10.38
2023-05-10T08:49:07.027Z,9.08
2023-05-10T08:50:07.003Z,7.69
2023-05-10T08:51:07.046Z,6.62
2023-05-10T08:52:07.089Z,6.42
2023-05-10T08:53:07.150Z,5.88
2023-05-10T08:54:07.212Z,5.09
2023-05-10T08:55:07.305Z,4.84
2023-05-10T08:56:07.277Z,5.13
2023-05-10T08:57:07.326Z,4.92
2023-05-10T08:58:07.402Z,5.21
2023-05-10T08:59:07.381Z,5.80
2023-05-10T09:00:07.435Z,6.37
2023-05-10T09:01:07.589Z,6.35
2023-05-10T09:02:07.538Z,6.41
2023-05-10T09:03:07.614Z,6.14
2023-05-10T09:04:07.701Z,5.92
2023-05-10T09:05:07.620Z,5.12
2023-05-10T09:06:07.586Z,5.14
2023-05-10T09:07:07.635Z,5.21
2023-05-10T09:08:07.689Z,6.01
2023-05-10T09:09:07.651Z,6.18
2023-05-10T09:10:07.905Z,6.46
2023-05-10T09:11:07.758Z,6.77
2023-05-10T09:12:07.773Z,6.70
2023-05-10T09:13:07.923Z,7.26
2023-05-10T09:14:07.844Z,6.79
2023-05-10T09:15:07.922Z,6.76
2023-05-10T09:16:20.263Z,6.56
2023-05-10T09:17:08.958Z,6.54
2023-05-10T09:18:07.928Z,6.05
2023-05-10T09:19:08.024Z,5.95
2023-05-10T09:20:07.894Z,6.18
2023-05-10T09:21:07.926Z,6.41
2023-05-10T09:22:07.895Z,5.90
2023-05-10T09:23:07.887Z,5.33
2023-05-10T09:24:07.916Z,5.21
2023-05-10T09:25:08.419Z,4.51
2023-05-10T09:26:07.933Z,4.25
2023-05-10T09:27:07.999Z,4.12
2023-05-10T09:28:07.835Z,3.76
2023-05-10T09:29:07.835Z,3.71
2023-05-10T09:30:07.928Z,4.43
2023-05-10T09:31:07.946Z,4.88
2023-05-10T09:32:07.818Z,4.80
2023-05-10T09:33:07.884Z,5.61
2023-05-10T09:34:07.870Z,6.98
2023-05-10T09:35:07.911Z,7.56
2023-05-10T09:36:08.415Z,7.43
2023-05-10T09:37:07.921Z,7.10
2023-05-10T09:38:07.963Z,7.46
2023-05-10T09:39:08.026Z,8.18
2023-05-10T09:40:08.005Z,9.27
2023-05-10T09:41:08.040Z,10.31
2023-05-10T09:42:08.090Z,11.13
2023-05-10T09:43:08.160Z,12.18
2023-05-10T09:44:08.174Z,13.28
2023-05-10T09:45:08.224Z,12.62
2023-05-10T09:46:08.445Z,12.81
2023-05-10T09:47:08.369Z,13.57
2023-05-10T09:48:08.372Z,14.74
2023-05-10T09:49:08.362Z,15.97
2023-05-10T09:50:08.402Z,16.78
2023-05-10T09:51:08.453Z,16.91
2023-05-10T09:52:08.489Z,17.04
2023-05-10T09:53:08.490Z,16.86
2023-05-10T09:54:08.560Z,17.25
2023-05-10T09:55:08.625Z,17.31
2023-05-10T09:56:08.657Z,17.46
2023-05-10T09:57:08.725Z,17.93
2023-05-10T09:58:08.772Z,18.58
2023-05-10T09:59:08.845Z,18.48
2023-05-10T10:00:08.864Z,17.96
2023-05-10T10:01:08.974Z,18.25
2023-05-10T10:02:08.965Z,17.68
2023-05-10T10:03:09.036Z,17.20
2023-05-10T10:04:09.075Z,16.54
2023-05-10T10:05:09.231Z,15.93
2023-05-10T10:06:18.772Z,15.78
2023-05-10T10:07:10.148Z,15.81
2023-05-10T10:08:09.141Z,15.89
2023-05-10T10:09:09.126Z,15.49
2023-05-10T10:10:09.126Z,14.72
2023-05-10T10:11:09.128Z,14.22
2023-05-10T10:12:09.098Z,13.82
2023-05-10T10:13:09.123Z,13.91
2023-05-10T10:14:09.115Z,14.70
2023-05-10T10:15:09.083Z,13.85
2023-05-10T10:16:09.488Z,13.31
2023-05-10T10:17:09.273Z,12.25
2023-05-10T10:18:09.264Z,10.66
2023-05-10T10:19:09.175Z,9.35
2023-05-10T10:20:11.715Z,6.46
2023-05-10T10:21:09.443Z,5.85
2023-05-10T10:22:09.221Z,5.86
2023-05-10T10:23:09.216Z,5.79
2023-05-10T10:24:09.188Z,5.10
2023-05-10T10:25:09.209Z,4.94
2023-05-10T10:26:09.482Z,4.43
2023-05-10T10:27:09.161Z,3.30
2023-05-10T10:28:09.153Z,2.77
2023-05-10T10:29:09.171Z,2.19
2023-05-10T10:30:09.155Z,1.88
2023-05-10T10:31:09.190Z,1.52
2023-05-10T10:32:09.159Z,1.59
2023-05-10T10:33:20.203Z,1.35
2023-05-10T10:34:10.140Z,1.18
2023-05-10T10:35:09.133Z,1.05
2023-05-10T10:36:09.485Z,1.00
2023-05-10T10:37:09.103Z,0.69
2023-05-10T10:38:09.091Z,0.57
2023-05-10T10:39:09.097Z,0.74
2023-05-10T10:40:09.116Z,1.00
2023-05-10T10:41:09.074Z,1.20
2023-05-10T10:42:09.083Z,1.41
2023-05-10T10:43:09.098Z,1.80
2023-05-10T10:44:09.064Z,2.05
2023-05-10T10:45:09.091Z,2.07
2023-05-10T10:46:09.110Z,2.19
2023-05-10T10:47:09.231Z,2.46
2023-05-10T10:48:09.259Z,2.59
2023-05-10T10:49:09.180Z,2.82
2023-05-10T10:50:09.179Z,2.83
2023-05-10T10:51:10.691Z,2.88
2023-05-10T10:52:09.199Z,3.09
2023-05-10T10:53:09.260Z,3.10
2023-05-10T10:54:09.225Z,3.03
2023-05-10T10:55:09.320Z,3.08
2023-05-10T10:56:09.207Z,3.24
2023-05-10T10:57:09.177Z,3.33
2023-05-10T10:58:09.179Z,3.18
2023-05-10T10:59:09.174Z,3.14
2023-05-10T11:00:09.161Z,3.27
2023-05-10T11:01:09.199Z,3.22
2023-05-10T11:02:09.142Z,3.11
2023-05-10T11:03:09.166Z,3.33
2023-05-10T11:04:09.189Z,4.52
2023-05-10T11:05:09.100Z,4.86
2023-05-10T11:06:09.122Z,5.01
2023-05-10T11:07:09.100Z,4.02
2023-05-10T11:08:09.104Z,4.04
2023-05-10T11:09:09.089Z,4.03
2023-05-10T11:10:09.071Z,3.62
2023-05-10T11:11:09.078Z,3.66
2023-05-10T11:12:09.059Z,3.58
2023-05-10T11:13:09.078Z,3.91
2023-05-10T11:14:09.066Z,4.16
2023-05-10T11:15:09.073Z,4.41
2023-05-10T11:16:09.515Z,4.70
2023-05-10T11:17:09.105Z,5.34
2023-05-10T11:18:09.093Z,5.81
2023-05-10T11:19:09.132Z,6.15
2023-05-10T11:20:09.019Z,6.42
2023-05-10T11:21:09.007Z,6.27
2023-05-10T11:22:09.009Z,6.33
2023-05-10T11:23:09.005Z,6.21
2023-05-10T11:24:08.979Z,6.48
2023-05-10T11:25:08.982Z,6.43
2023-05-10T11:26:08.962Z,6.24
2023-05-10T11:27:08.955Z,6.41
2023-05-10T11:28:08.954Z,6.53
2023-05-10T11:29:08.958Z,6.58
2023-05-10T11:30:08.981Z,6.43
2023-05-10T11:31:08.953Z,6.37
2023-05-10T11:32:08.920Z,6.43
2023-05-10T11:33:08.956Z,6.44
2023-05-10T11:34:08.942Z,6.41
2023-05-10T11:35:08.914Z,6.30
2023-05-10T11:36:08.897Z,6.32
2023-05-10T11:37:08.887Z,6.22
2023-05-10T11:38:08.902Z,6.19
2023-05-10T11:39:08.897Z,6.41
2023-05-10T11:40:08.888Z,6.26
2023-05-10T11:41:08.883Z,6.30
2023-05-10T11:42:08.882Z,6.20
2023-05-10T11:43:08.898Z,6.17
2023-05-10T11:44:08.901Z,6.15
2023-05-10T11:45:08.942Z,6.01
2023-05-10T11:46:09.004Z,5.84
2023-05-10T11:47:08.987Z,5.80
2023-05-10T11:48:09.080Z,5.58
2023-05-10T11:49:09.038Z,5.63
2023-05-10T11:50:09.072Z,5.56
2023-05-10T11:51:09.153Z,5.70
2023-05-10T11:52:09.146Z,5.41
2023-05-10T11:53:09.168Z,5.58
2023-05-10T11:54:09.189Z,5.34
2023-05-10T11:55:09.236Z,5.41
2023-05-10T11:56:09.275Z,5.07
2023-05-10T11:57:09.333Z,5.03
2023-05-10T11:58:09.407Z,4.99
2023-05-10T11:59:09.499Z,5.13
2023-05-10T12:00:09.446Z,4.76
2023-05-10T12:01:09.467Z,4.84
2023-05-10T12:02:09.499Z,4.88
2023-05-10T12:03:09.606Z,4.68
2023-05-10T12:04:09.803Z,4.53
2023-05-10T12:05:09.679Z,4.64
2023-05-10T12:06:09.981Z,4.45
2023-05-10T12:07:09.685Z,4.46
2023-05-10T12:08:09.691Z,4.31
2023-05-10T12:09:09.740Z,4.31
2023-05-10T12:10:09.766Z,4.17
2023-05-10T12:11:10.004Z,4.14
2023-05-10T12:12:09.851Z,4.02
2023-05-10T12:13:09.863Z,4.09
2023-05-10T12:14:09.898Z,4.33
2023-05-10T12:15:09.941Z,4.29
2023-05-10T12:16:09.997Z,4.17
2023-05-10T12:17:09.957Z,3.96
2023-05-10T12:18:10.050Z,4.03
2023-05-10T12:19:10.207Z,3.99
2023-05-10T12:20:09.976Z,3.87
2023-05-10T12:21:10.036Z,3.74
2023-05-10T12:22:09.985Z,3.67
2023-05-10T12:23:10.054Z,3.45
2023-05-10T12:24:10.001Z,3.62
2023-05-10T12:25:10.012Z,3.80
2023-05-10T12:26:10.049Z,3.81
2023-05-10T12:27:10.059Z,3.73
2023-05-10T12:28:10.091Z,3.71
2023-05-10T12:29:10.092Z,3.71
2023-05-10T12:30:10.097Z,3.56
2023-05-10T12:31:10.128Z,3.61
2023-05-10T12:32:10.194Z,3.69
2023-05-10T12:33:10.256Z,3.70
2023-05-10T12:34:10.229Z,3.71
2023-05-10T12:35:10.282Z,3.77
2023-05-10T12:36:10.318Z,3.72
2023-05-10T12:37:10.340Z,3.72
2023-05-10T12:38:10.437Z,3.72
2023-05-10T12:39:10.391Z,3.78
2023-05-10T12:40:10.468Z,3.79
2023-05-10T12:41:10.579Z,3.66
2023-05-10T12:42:10.552Z,3.68
2023-05-10T12:43:10.523Z,3.66
2023-05-10T12:44:10.495Z,3.63
2023-05-10T12:45:10.519Z,3.64
2023-05-10T12:46:10.574Z,3.64
2023-05-10T12:47:10.553Z,3.67
2023-05-10T12:48:10.544Z,3.65
2023-05-10T12:49:10.559Z,3.66
2023-05-10T12:50:10.588Z,3.47
2023-05-10T12:51:10.574Z,3.55
2023-05-10T12:52:10.553Z,3.49
2023-05-10T12:53:10.559Z,3.49
2023-05-10T12:54:10.568Z,3.43
2023-05-10T12:55:10.557Z,3.38
2023-05-10T12:56:10.575Z,3.25
2023-05-10T12:57:10.542Z,3.28
2023-05-10T12:58:12.363Z,3.28
2023-05-10T12:59:10.551Z,3.42
2023-05-10T13:00:10.553Z,3.51
2023-05-10T13:01:10.553Z,3.45
2023-05-10T13:02:10.509Z,3.42
2023-05-10T13:03:10.628Z,3.33
2023-05-10T13:04:10.599Z,3.28
2023-05-10T13:05:10.601Z,3.23
2023-05-10T13:06:10.509Z,3.19
2023-05-10T13:07:10.514Z,3.38
2023-05-10T13:08:10.501Z,3.26
2023-05-10T13:09:10.480Z,3.37
2023-05-10T13:10:10.507Z,3.32
2023-05-10T13:11:10.469Z,3.33
2023-05-10T13:12:10.468Z,3.30
2023-05-10T13:13:10.448Z,3.21